sensor_id;sensor_type;location;lat;lon;timestamp;P1;durP1;ratioP1;P2;durP2;ratioP2
4704;SDS011;2366;51.332;6.610;2023-09-30T00:01:42;25.03;;;10.30;;
4704;SDS011;2366;51.332;6.610;2023-09-30T00:04:08;23.75;;;10.07;;
4704;SDS011;2366;51.332;6.610;2023-09-30T00:06:34;29.07;;;11.73;;
4704;SDS011;2366;51.332;6.610;2023-09-30T00:08:59;16.60;;;10.97;;
4704;SDS011;2366;51.332;6.610;2023-09-30T00:11:25;21.70;;;10.07;;
4704;SDS011;2366;51.332;6.610;2023-09-30T00:13:50;31.23;;;10.93;;
4704;SDS011;2366;51.332;6.610;2023-09-30T00:16:15;28.27;;;11.13;;
4704;SDS011;2366;51.332;6.610;2023-09-30T00:18:42;19.75;;;11.10;;
4704;SDS011;2366;51.332;6.610;2023-09-30T00:21:08;22.33;;;11.20;;
4704;SDS011;2366;51.332;6.610;2023-09-30T00:23:34;18.20;;;10.10;;
4704;SDS011;2366;51.332;6.610;2023-09-30T00:25:59;17.93;;;9.17;;
4704;SDS011;2366;51.332;6.610;2023-09-30T00:28:25;21.05;;;10.05;;
4704;SDS011;2366;51.332;6.610;2023-09-30T00:30:51;16.93;;;9.33;;
4704;SDS011;2366;51.332;6.610;2023-09-30T00:33:16;18.60;;;10.70;;
4704;SDS011;2366;51.332;6.610;2023-09-30T00:35:42;23.50;;;9.23;;
4704;SDS011;2366;51.332;6.610;2023-09-30T00:38:07;17.23;;;9.57;;
4704;SDS011;2366;51.332;6.610;2023-09-30T00:40:33;31.83;;;11.70;;
4704;SDS011;2366;51.332;6.610;2023-09-30T00:43:00;22.33;;;10.20;;
4704;SDS011;2366;51.332;6.610;2023-09-30T00:45:26;19.17;;;9.75;;
4704;SDS011;2366;51.332;6.610;2023-09-30T00:47:53;20.05;;;10.25;;
4704;SDS011;2366;51.332;6.610;2023-09-30T00:50:19;15.70;;;8.40;;
4704;SDS011;2366;51.332;6.610;2023-09-30T00:52:45;19.85;;;10.05;;
4704;SDS011;2366;51.332;6.610;2023-09-30T00:55:13;14.48;;;9.38;;
4704;SDS011;2366;51.332;6.610;2023-09-30T00:57:40;20.98;;;10.48;;
4704;SDS011;2366;51.332;6.610;2023-09-30T01:00:06;24.80;;;10.83;;
4704;SDS011;2366;51.332;6.610;2023-09-30T01:02:36;21.48;;;11.18;;
4704;SDS011;2366;51.332;6.610;2023-09-30T01:05:04;24.65;;;11.60;;
4704;SDS011;2366;51.332;6.610;2023-09-30T01:07:30;17.03;;;10.47;;
4704;SDS011;2366;51.332;6.610;2023-09-30T01:09:55;17.90;;;9.90;;
4704;SDS011;2366;51.332;6.610;2023-09-30T01:12:21;16.20;;;8.63;;
4704;SDS011;2366;51.332;6.610;2023-09-30T01:14:46;17.47;;;8.93;;
4704;SDS011;2366;51.332;6.610;2023-09-30T01:17:11;20.27;;;10.37;;
4704;SDS011;2366;51.332;6.610;2023-09-30T01:19:39;16.33;;;9.30;;
4704;SDS011;2366;51.332;6.610;2023-09-30T01:22:05;22.08;;;10.57;;
4704;SDS011;2366;51.332;6.610;2023-09-30T01:24:30;15.70;;;9.60;;
4704;SDS011;2366;51.332;6.610;2023-09-30T01:27:02;22.85;;;9.30;;
4704;SDS011;2366;51.332;6.610;2023-09-30T01:29:28;21.20;;;9.93;;
4704;SDS011;2366;51.332;6.610;2023-09-30T01:31:53;30.00;;;8.90;;
4704;SDS011;2366;51.332;6.610;2023-09-30T01:34:19;22.47;;;9.33;;
4704;SDS011;2366;51.332;6.610;2023-09-30T01:36:44;23.93;;;9.20;;
4704;SDS011;2366;51.332;6.610;2023-09-30T01:39:10;13.53;;;8.67;;
4704;SDS011;2366;51.332;6.610;2023-09-30T01:41:37;14.52;;;8.15;;
4704;SDS011;2366;51.332;6.610;2023-09-30T01:44:03;12.65;;;7.97;;
4704;SDS011;2366;51.332;6.610;2023-09-30T01:46:28;18.47;;;9.90;;
4704;SDS011;2366;51.332;6.610;2023-09-30T01:48:54;19.57;;;9.53;;
4704;SDS011;2366;51.332;6.610;2023-09-30T01:51:19;18.23;;;9.50;;
4704;SDS011;2366;51.332;6.610;2023-09-30T01:53:45;13.30;;;8.73;;
4704;SDS011;2366;51.332;6.610;2023-09-30T01:56:10;17.90;;;8.40;;
4704;SDS011;2366;51.332;6.610;2023-09-30T01:58:35;15.50;;;8.40;;
4704;SDS011;2366;51.332;6.610;2023-09-30T02:01:01;14.83;;;8.40;;
4704;SDS011;2366;51.332;6.610;2023-09-30T02:03:28;15.18;;;8.85;;
4704;SDS011;2366;51.332;6.610;2023-09-30T02:05:54;29.37;;;10.00;;
4704;SDS011;2366;51.332;6.610;2023-09-30T02:08:19;15.70;;;9.03;;
4704;SDS011;2366;51.332;6.610;2023-09-30T02:10:45;17.53;;;8.33;;
4704;SDS011;2366;51.332;6.610;2023-09-30T02:13:10;20.50;;;9.20;;
4704;SDS011;2366;51.332;6.610;2023-09-30T02:15:39;15.00;;;7.87;;
4704;SDS011;2366;51.332;6.610;2023-09-30T02:18:06;19.80;;;8.95;;
4704;SDS011;2366;51.332;6.610;2023-09-30T02:20:31;30.77;;;9.30;;
4704;SDS011;2366;51.332;6.610;2023-09-30T02:22:57;23.67;;;9.00;;
4704;SDS011;2366;51.332;6.610;2023-09-30T02:25:24;17.30;;;8.77;;
4704;SDS011;2366;51.332;6.610;2023-09-30T02:27:49;23.00;;;8.63;;
4704;SDS011;2366;51.332;6.610;2023-09-30T02:30:15;23.85;;;10.35;;
4704;SDS011;2366;51.332;6.610;2023-09-30T02:32:41;17.73;;;8.23;;
4704;SDS011;2366;51.332;6.610;2023-09-30T02:35:07;26.40;;;8.93;;
4704;SDS011;2366;51.332;6.610;2023-09-30T02:37:35;19.50;;;9.30;;
4704;SDS011;2366;51.332;6.610;2023-09-30T02:40:04;18.53;;;8.57;;
4704;SDS011;2366;51.332;6.610;2023-09-30T02:42:34;25.27;;;9.73;;
4704;SDS011;2366;51.332;6.610;2023-09-30T02:45:03;29.20;;;9.25;;
4704;SDS011;2366;51.332;6.610;2023-09-30T02:47:29;21.70;;;9.18;;
4704;SDS011;2366;51.332;6.610;2023-09-30T02:49:56;19.95;;;9.25;;
4704;SDS011;2366;51.332;6.610;2023-09-30T02:52:23;19.40;;;8.45;;
4704;SDS011;2366;51.332;6.610;2023-09-30T02:54:52;24.70;;;9.48;;
4704;SDS011;2366;51.332;6.610;2023-09-30T02:57:17;17.53;;;9.13;;
4704;SDS011;2366;51.332;6.610;2023-09-30T02:59:44;18.55;;;10.70;;
4704;SDS011;2366;51.332;6.610;2023-09-30T03:02:10;12.60;;;8.50;;
4704;SDS011;2366;51.332;6.610;2023-09-30T03:04:36;14.57;;;8.15;;
4704;SDS011;2366;51.332;6.610;2023-09-30T03:07:02;22.60;;;8.17;;
4704;SDS011;2366;51.332;6.610;2023-09-30T03:09:27;17.50;;;9.40;;
4704;SDS011;2366;51.332;6.610;2023-09-30T03:11:53;21.63;;;9.23;;
4704;SDS011;2366;51.332;6.610;2023-09-30T03:14:21;27.13;;;10.70;;
4704;SDS011;2366;51.332;6.610;2023-09-30T03:16:46;21.87;;;8.93;;
4704;SDS011;2366;51.332;6.610;2023-09-30T03:19:12;19.83;;;8.77;;
4704;SDS011;2366;51.332;6.610;2023-09-30T03:21:37;19.33;;;8.53;;
4704;SDS011;2366;51.332;6.610;2023-09-30T03:24:03;19.53;;;8.80;;
4704;SDS011;2366;51.332;6.610;2023-09-30T03:26:29;22.70;;;10.02;;
4704;SDS011;2366;51.332;6.610;2023-09-30T03:28:55;24.10;;;10.05;;
4704;SDS011;2366;51.332;6.610;2023-09-30T03:31:21;23.43;;;12.10;;
4704;SDS011;2366;51.332;6.610;2023-09-30T03:33:47;12.40;;;7.40;;
4704;SDS011;2366;51.332;6.610;2023-09-30T03:36:16;14.02;;;9.27;;
4704;SDS011;2366;51.332;6.610;2023-09-30T03:38:42;13.63;;;7.77;;
4704;SDS011;2366;51.332;6.610;2023-09-30T03:41:07;32.67;;;11.03;;
4704;SDS011;2366;51.332;6.610;2023-09-30T03:43:33;27.30;;;9.80;;
4704;SDS011;2366;51.332;6.610;2023-09-30T03:46:01;22.08;;;8.88;;
4704;SDS011;2366;51.332;6.610;2023-09-30T03:48:27;16.47;;;10.40;;
4704;SDS011;2366;51.332;6.610;2023-09-30T03:50:52;18.80;;;9.50;;
4704;SDS011;2366;51.332;6.610;2023-09-30T03:53:18;23.17;;;10.57;;
4704;SDS011;2366;51.332;6.610;2023-09-30T03:55:44;15.07;;;8.00;;
4704;SDS011;2366;51.332;6.610;2023-09-30T03:58:10;21.93;;;9.40;;
4704;SDS011;2366;51.332;6.610;2023-09-30T04:00:37;16.52;;;9.35;;
4704;SDS011;2366;51.332;6.610;2023-09-30T04:03:04;19.25;;;10.98;;
4704;SDS011;2366;51.332;6.610;2023-09-30T04:05:30;19.93;;;9.67;;
4704;SDS011;2366;51.332;6.610;2023-09-30T04:07:59;20.38;;;10.00;;
4704;SDS011;2366;51.332;6.610;2023-09-30T04:10:24;21.80;;;10.53;;
4704;SDS011;2366;51.332;6.610;2023-09-30T04:12:50;18.03;;;8.90;;
4704;SDS011;2366;51.332;6.610;2023-09-30T04:15:17;22.98;;;10.35;;
4704;SDS011;2366;51.332;6.610;2023-09-30T04:17:43;22.35;;;10.82;;
4704;SDS011;2366;51.332;6.610;2023-09-30T04:20:09;19.00;;;12.03;;
4704;SDS011;2366;51.332;6.610;2023-09-30T04:22:36;25.45;;;9.32;;
4704;SDS011;2366;51.332;6.610;2023-09-30T04:25:02;14.48;;;9.30;;
4704;SDS011;2366;51.332;6.610;2023-09-30T04:27:34;29.45;;;10.80;;
4704;SDS011;2366;51.332;6.610;2023-09-30T04:29:59;16.20;;;10.00;;
4704;SDS011;2366;51.332;6.610;2023-09-30T04:32:24;19.93;;;10.70;;
4704;SDS011;2366;51.332;6.610;2023-09-30T04:34:52;19.95;;;9.82;;
4704;SDS011;2366;51.332;6.610;2023-09-30T04:37:17;21.47;;;11.63;;
4704;SDS011;2366;51.332;6.610;2023-09-30T04:39:44;18.02;;;10.60;;
4704;SDS011;2366;51.332;6.610;2023-09-30T04:42:09;20.73;;;12.93;;
4704;SDS011;2366;51.332;6.610;2023-09-30T04:44:36;23.33;;;11.93;;
4704;SDS011;2366;51.332;6.610;2023-09-30T04:47:03;27.25;;;11.48;;
4704;SDS011;2366;51.332;6.610;2023-09-30T04:49:29;16.23;;;11.07;;
4704;SDS011;2366;51.332;6.610;2023-09-30T04:51:55;17.92;;;10.63;;
4704;SDS011;2366;51.332;6.610;2023-09-30T04:54:21;26.27;;;12.03;;
4704;SDS011;2366;51.332;6.610;2023-09-30T04:56:46;20.90;;;9.97;;
4704;SDS011;2366;51.332;6.610;2023-09-30T04:59:12;22.00;;;10.07;;
4704;SDS011;2366;51.332;6.610;2023-09-30T05:01:37;17.37;;;10.30;;
4704;SDS011;2366;51.332;6.610;2023-09-30T05:04:03;18.30;;;9.90;;
4704;SDS011;2366;51.332;6.610;2023-09-30T05:06:28;19.10;;;8.93;;
4704;SDS011;2366;51.332;6.610;2023-09-30T05:08:54;22.00;;;10.33;;
4704;SDS011;2366;51.332;6.610;2023-09-30T05:11:20;22.35;;;11.95;;
4704;SDS011;2366;51.332;6.610;2023-09-30T05:13:46;22.33;;;13.30;;
4704;SDS011;2366;51.332;6.610;2023-09-30T05:16:11;17.70;;;10.70;;
4704;SDS011;2366;51.332;6.610;2023-09-30T05:18:37;17.42;;;11.10;;
4704;SDS011;2366;51.332;6.610;2023-09-30T05:21:03;24.20;;;9.40;;
4704;SDS011;2366;51.332;6.610;2023-09-30T05:23:28;16.83;;;11.00;;
4704;SDS011;2366;51.332;6.610;2023-09-30T05:25:54;20.80;;;11.70;;
4704;SDS011;2366;51.332;6.610;2023-09-30T05:28:20;22.13;;;10.73;;
4704;SDS011;2366;51.332;6.610;2023-09-30T05:30:45;22.52;;;11.65;;
4704;SDS011;2366;51.332;6.610;2023-09-30T05:33:11;24.40;;;12.27;;
4704;SDS011;2366;51.332;6.610;2023-09-30T05:35:39;24.63;;;12.35;;
4704;SDS011;2366;51.332;6.610;2023-09-30T05:38:08;28.52;;;12.70;;
4704;SDS011;2366;51.332;6.610;2023-09-30T05:40:33;30.97;;;13.40;;
4704;SDS011;2366;51.332;6.610;2023-09-30T05:42:59;29.40;;;13.40;;
4704;SDS011;2366;51.332;6.610;2023-09-30T05:45:25;30.88;;;12.65;;
4704;SDS011;2366;51.332;6.610;2023-09-30T05:47:55;19.17;;;12.35;;
4704;SDS011;2366;51.332;6.610;2023-09-30T05:50:23;26.33;;;12.60;;
4704;SDS011;2366;51.332;6.610;2023-09-30T05:52:50;35.47;;;13.95;;
4704;SDS011;2366;51.332;6.610;2023-09-30T05:55:16;20.88;;;12.20;;
4704;SDS011;2366;51.332;6.610;2023-09-30T05:57:46;31.63;;;12.80;;
4704;SDS011;2366;51.332;6.610;2023-09-30T06:00:13;23.83;;;12.90;;
4704;SDS011;2366;51.332;6.610;2023-09-30T06:02:48;21.65;;;11.57;;
4704;SDS011;2366;51.332;6.610;2023-09-30T06:05:14;23.95;;;11.93;;
4704;SDS011;2366;51.332;6.610;2023-09-30T06:07:44;32.17;;;13.98;;
4704;SDS011;2366;51.332;6.610;2023-09-30T06:10:10;18.95;;;10.05;;
4704;SDS011;2366;51.332;6.610;2023-09-30T06:12:36;19.08;;;11.93;;
4704;SDS011;2366;51.332;6.610;2023-09-30T06:15:02;16.43;;;9.67;;
4704;SDS011;2366;51.332;6.610;2023-09-30T06:17:31;20.60;;;11.18;;
4704;SDS011;2366;51.332;6.610;2023-09-30T06:19:58;15.75;;;10.82;;
4704;SDS011;2366;51.332;6.610;2023-09-30T06:22:32;23.23;;;11.00;;
4704;SDS011;2366;51.332;6.610;2023-09-30T06:24:57;18.53;;;11.23;;
4704;SDS011;2366;51.332;6.610;2023-09-30T06:27:23;16.27;;;10.67;;
4704;SDS011;2366;51.332;6.610;2023-09-30T06:29:48;17.83;;;10.00;;
4704;SDS011;2366;51.332;6.610;2023-09-30T06:32:14;21.37;;;10.60;;
4704;SDS011;2366;51.332;6.610;2023-09-30T06:34:40;25.20;;;11.32;;
4704;SDS011;2366;51.332;6.610;2023-09-30T06:37:06;29.80;;;11.93;;
4704;SDS011;2366;51.332;6.610;2023-09-30T06:39:31;14.73;;;11.27;;
4704;SDS011;2366;51.332;6.610;2023-09-30T06:41:57;21.90;;;11.43;;
4704;SDS011;2366;51.332;6.610;2023-09-30T06:44:22;24.97;;;10.07;;
4704;SDS011;2366;51.332;6.610;2023-09-30T06:46:50;15.05;;;10.05;;
4704;SDS011;2366;51.332;6.610;2023-09-30T06:49:15;13.87;;;8.67;;
4704;SDS011;2366;51.332;6.610;2023-09-30T06:51:41;16.07;;;9.93;;
4704;SDS011;2366;51.332;6.610;2023-09-30T06:54:07;14.77;;;10.03;;
4704;SDS011;2366;51.332;6.610;2023-09-30T06:56:33;11.30;;;8.73;;
4704;SDS011;2366;51.332;6.610;2023-09-30T06:58:58;15.77;;;9.30;;
4704;SDS011;2366;51.332;6.610;2023-09-30T07:01:24;17.10;;;9.30;;
4704;SDS011;2366;51.332;6.610;2023-09-30T07:03:50;19.70;;;10.30;;
4704;SDS011;2366;51.332;6.610;2023-09-30T07:06:25;16.27;;;11.10;;
4704;SDS011;2366;51.332;6.610;2023-09-30T07:08:51;21.33;;;13.13;;
4704;SDS011;2366;51.332;6.610;2023-09-30T07:11:26;17.50;;;12.20;;
4704;SDS011;2366;51.332;6.610;2023-09-30T07:13:52;24.90;;;13.67;;
4704;SDS011;2366;51.332;6.610;2023-09-30T07:16:17;26.50;;;12.80;;
4704;SDS011;2366;51.332;6.610;2023-09-30T07:18:42;18.90;;;11.77;;
4704;SDS011;2366;51.332;6.610;2023-09-30T07:21:08;23.53;;;12.77;;
4704;SDS011;2366;51.332;6.610;2023-09-30T07:23:33;15.30;;;12.00;;
4704;SDS011;2366;51.332;6.610;2023-09-30T07:25:58;14.83;;;11.23;;
4704;SDS011;2366;51.332;6.610;2023-09-30T07:28:24;17.50;;;12.83;;
4704;SDS011;2366;51.332;6.610;2023-09-30T07:30:49;14.93;;;12.33;;
4704;SDS011;2366;51.332;6.610;2023-09-30T07:33:15;20.60;;;13.10;;
4704;SDS011;2366;51.332;6.610;2023-09-30T07:35:40;19.90;;;14.37;;
4704;SDS011;2366;51.332;6.610;2023-09-30T07:38:06;14.37;;;12.83;;
4704;SDS011;2366;51.332;6.610;2023-09-30T07:40:31;17.63;;;14.97;;
4704;SDS011;2366;51.332;6.610;2023-09-30T07:42:57;18.80;;;13.33;;
4704;SDS011;2366;51.332;6.610;2023-09-30T07:45:23;16.40;;;13.77;;
4704;SDS011;2366;51.332;6.610;2023-09-30T07:47:48;16.43;;;13.47;;
4704;SDS011;2366;51.332;6.610;2023-09-30T07:50:14;17.50;;;12.03;;
4704;SDS011;2366;51.332;6.610;2023-09-30T07:52:40;17.77;;;13.30;;
4704;SDS011;2366;51.332;6.610;2023-09-30T07:55:06;23.47;;;14.20;;
4704;SDS011;2366;51.332;6.610;2023-09-30T07:57:33;16.93;;;12.90;;
4704;SDS011;2366;51.332;6.610;2023-09-30T07:59:58;16.00;;;12.47;;
4704;SDS011;2366;51.332;6.610;2023-09-30T08:02:24;12.33;;;9.83;;
4704;SDS011;2366;51.332;6.610;2023-09-30T08:04:52;14.83;;;11.37;;
4704;SDS011;2366;51.332;6.610;2023-09-30T08:07:18;15.87;;;10.93;;
4704;SDS011;2366;51.332;6.610;2023-09-30T08:09:43;12.67;;;10.33;;
4704;SDS011;2366;51.332;6.610;2023-09-30T08:12:09;17.20;;;11.63;;
4704;SDS011;2366;51.332;6.610;2023-09-30T08:14:34;13.80;;;10.67;;
4704;SDS011;2366;51.332;6.610;2023-09-30T08:16:59;11.80;;;10.53;;
4704;SDS011;2366;51.332;6.610;2023-09-30T08:19:25;11.17;;;10.00;;
4704;SDS011;2366;51.332;6.610;2023-09-30T08:21:50;12.77;;;9.80;;
4704;SDS011;2366;51.332;6.610;2023-09-30T08:24:17;13.27;;;11.07;;
4704;SDS011;2366;51.332;6.610;2023-09-30T08:26:42;12.93;;;8.80;;
4704;SDS011;2366;51.332;6.610;2023-09-30T08:29:08;11.43;;;9.30;;
4704;SDS011;2366;51.332;6.610;2023-09-30T08:31:33;9.97;;;9.10;;
4704;SDS011;2366;51.332;6.610;2023-09-30T08:33:59;12.23;;;10.03;;
4704;SDS011;2366;51.332;6.610;2023-09-30T08:36:24;10.37;;;9.27;;
4704;SDS011;2366;51.332;6.610;2023-09-30T08:38:49;10.03;;;9.07;;
4704;SDS011;2366;51.332;6.610;2023-09-30T08:41:25;10.77;;;9.47;;
4704;SDS011;2366;51.332;6.610;2023-09-30T08:43:58;10.67;;;9.30;;
4704;SDS011;2366;51.332;6.610;2023-09-30T08:46:25;15.93;;;9.67;;
4704;SDS011;2366;51.332;6.610;2023-09-30T08:48:52;10.93;;;8.87;;
4704;SDS011;2366;51.332;6.610;2023-09-30T08:51:20;14.40;;;9.20;;
4704;SDS011;2366;51.332;6.610;2023-09-30T08:53:46;12.33;;;8.60;;
4704;SDS011;2366;51.332;6.610;2023-09-30T08:56:11;10.63;;;9.40;;
4704;SDS011;2366;51.332;6.610;2023-09-30T08:58:39;16.70;;;9.60;;
4704;SDS011;2366;51.332;6.610;2023-09-30T09:01:04;10.13;;;8.20;;
4704;SDS011;2366;51.332;6.610;2023-09-30T09:03:33;13.10;;;8.60;;
4704;SDS011;2366;51.332;6.610;2023-09-30T09:06:01;9.60;;;8.00;;
4704;SDS011;2366;51.332;6.610;2023-09-30T09:08:27;11.00;;;8.67;;
4704;SDS011;2366;51.332;6.610;2023-09-30T09:10:53;12.87;;;6.70;;
4704;SDS011;2366;51.332;6.610;2023-09-30T09:13:21;11.63;;;8.80;;
4704;SDS011;2366;51.332;6.610;2023-09-30T09:15:47;9.30;;;8.10;;
4704;SDS011;2366;51.332;6.610;2023-09-30T09:18:12;8.30;;;7.40;;
4704;SDS011;2366;51.332;6.610;2023-09-30T09:21:07;7.70;;;7.00;;
4704;SDS011;2366;51.332;6.610;2023-09-30T09:23:40;10.30;;;7.57;;
4704;SDS011;2366;51.332;6.610;2023-09-30T09:26:06;10.87;;;9.50;;
4704;SDS011;2366;51.332;6.610;2023-09-30T09:28:36;12.30;;;9.10;;
4704;SDS011;2366;51.332;6.610;2023-09-30T09:31:18;11.93;;;9.20;;
4704;SDS011;2366;51.332;6.610;2023-09-30T09:33:46;11.80;;;9.50;;
4704;SDS011;2366;51.332;6.610;2023-09-30T09:36:11;12.27;;;8.50;;
4704;SDS011;2366;51.332;6.610;2023-09-30T09:38:43;12.90;;;9.47;;
4704;SDS011;2366;51.332;6.610;2023-09-30T09:41:09;10.27;;;9.03;;
4704;SDS011;2366;51.332;6.610;2023-09-30T09:43:36;16.93;;;9.17;;
4704;SDS011;2366;51.332;6.610;2023-09-30T09:46:03;14.77;;;8.67;;
4704;SDS011;2366;51.332;6.610;2023-09-30T09:48:32;15.90;;;8.67;;
4704;SDS011;2366;51.332;6.610;2023-09-30T09:51:00;17.03;;;7.70;;
4704;SDS011;2366;51.332;6.610;2023-09-30T09:53:28;13.60;;;8.23;;
4704;SDS011;2366;51.332;6.610;2023-09-30T09:55:56;15.30;;;9.10;;
4704;SDS011;2366;51.332;6.610;2023-09-30T09:58:23;15.13;;;7.67;;
4704;SDS011;2366;51.332;6.610;2023-09-30T10:00:49;13.83;;;9.60;;
4704;SDS011;2366;51.332;6.610;2023-09-30T10:03:16;15.03;;;7.97;;
4704;SDS011;2366;51.332;6.610;2023-09-30T10:05:42;8.40;;;6.43;;
4704;SDS011;2366;51.332;6.610;2023-09-30T10:08:12;12.50;;;6.20;;
4704;SDS011;2366;51.332;6.610;2023-09-30T10:10:42;9.93;;;7.20;;
4704;SDS011;2366;51.332;6.610;2023-09-30T10:13:09;9.27;;;5.47;;
4704;SDS011;2366;51.332;6.610;2023-09-30T10:15:40;18.00;;;7.60;;
4704;SDS011;2366;51.332;6.610;2023-09-30T10:20:36;10.90;;;6.90;;
4704;SDS011;2366;51.332;6.610;2023-09-30T10:28:39;16.53;;;8.10;;
4704;SDS011;2366;51.332;6.610;2023-09-30T10:31:10;12.60;;;7.67;;
4704;SDS011;2366;51.332;6.610;2023-09-30T10:34:12;9.30;;;6.73;;
4704;SDS011;2366;51.332;6.610;2023-09-30T10:38:54;21.50;;;6.90;;
4704;SDS011;2366;51.332;6.610;2023-09-30T10:42:05;14.60;;;6.40;;
4704;SDS011;2366;51.332;6.610;2023-09-30T10:44:39;12.03;;;6.17;;
4704;SDS011;2366;51.332;6.610;2023-09-30T10:47:33;12.43;;;6.30;;
4704;SDS011;2366;51.332;6.610;2023-09-30T10:49:49;9.67;;;5.30;;
4704;SDS011;2366;51.332;6.610;2023-09-30T10:52:21;11.93;;;6.20;;
4704;SDS011;2366;51.332;6.610;2023-09-30T10:54:48;10.43;;;4.80;;
4704;SDS011;2366;51.332;6.610;2023-09-30T10:57:14;6.83;;;4.57;;
4704;SDS011;2366;51.332;6.610;2023-09-30T11:00:08;10.20;;;5.63;;
4704;SDS011;2366;51.332;6.610;2023-09-30T11:02:49;20.43;;;5.23;;
4704;SDS011;2366;51.332;6.610;2023-09-30T11:05:16;7.87;;;5.90;;
4704;SDS011;2366;51.332;6.610;2023-09-30T11:07:43;7.23;;;4.63;;
4704;SDS011;2366;51.332;6.610;2023-09-30T11:10:15;6.67;;;3.53;;
4704;SDS011;2366;51.332;6.610;2023-09-30T11:12:53;8.20;;;4.33;;
4704;SDS011;2366;51.332;6.610;2023-09-30T11:15:19;7.60;;;4.10;;
4704;SDS011;2366;51.332;6.610;2023-09-30T11:17:45;12.03;;;4.90;;
4704;SDS011;2366;51.332;6.610;2023-09-30T11:20:10;15.57;;;5.33;;
4704;SDS011;2366;51.332;6.610;2023-09-30T11:22:36;7.67;;;3.97;;
4704;SDS011;2366;51.332;6.610;2023-09-30T11:25:02;8.33;;;3.77;;
4704;SDS011;2366;51.332;6.610;2023-09-30T11:27:28;7.13;;;3.87;;
4704;SDS011;2366;51.332;6.610;2023-09-30T11:29:54;7.43;;;3.40;;
4704;SDS011;2366;51.332;6.610;2023-09-30T11:32:26;7.30;;;3.90;;
4704;SDS011;2366;51.332;6.610;2023-09-30T11:34:53;9.10;;;3.10;;
4704;SDS011;2366;51.332;6.610;2023-09-30T11:37:19;8.93;;;3.80;;
4704;SDS011;2366;51.332;6.610;2023-09-30T11:39:46;6.20;;;3.77;;
4704;SDS011;2366;51.332;6.610;2023-09-30T11:42:16;5.87;;;2.70;;
4704;SDS011;2366;51.332;6.610;2023-09-30T11:44:45;6.70;;;2.97;;
4704;SDS011;2366;51.332;6.610;2023-09-30T11:47:13;10.27;;;4.87;;
4704;SDS011;2366;51.332;6.610;2023-09-30T11:49:40;9.33;;;4.23;;
4704;SDS011;2366;51.332;6.610;2023-09-30T11:52:10;6.43;;;3.50;;
4704;SDS011;2366;51.332;6.610;2023-09-30T11:54:37;7.77;;;4.50;;
4704;SDS011;2366;51.332;6.610;2023-09-30T11:57:09;11.70;;;4.90;;
4704;SDS011;2366;51.332;6.610;2023-09-30T11:59:37;12.70;;;3.73;;
4704;SDS011;2366;51.332;6.610;2023-09-30T12:02:05;14.57;;;4.27;;
4704;SDS011;2366;51.332;6.610;2023-09-30T12:04:31;6.23;;;3.43;;
4704;SDS011;2366;51.332;6.610;2023-09-30T12:06:57;5.83;;;3.00;;
4704;SDS011;2366;51.332;6.610;2023-09-30T12:09:23;5.77;;;2.73;;
4704;SDS011;2366;51.332;6.610;2023-09-30T12:11:50;6.27;;;2.73;;
4704;SDS011;2366;51.332;6.610;2023-09-30T12:14:16;7.50;;;2.90;;
4704;SDS011;2366;51.332;6.610;2023-09-30T12:16:42;5.60;;;3.00;;
4704;SDS011;2366;51.332;6.610;2023-09-30T12:19:12;5.50;;;2.67;;
4704;SDS011;2366;51.332;6.610;2023-09-30T12:21:39;6.43;;;3.33;;
4704;SDS011;2366;51.332;6.610;2023-09-30T12:24:05;7.00;;;3.20;;
4704;SDS011;2366;51.332;6.610;2023-09-30T12:26:32;6.67;;;3.33;;
4704;SDS011;2366;51.332;6.610;2023-09-30T12:28:58;4.90;;;3.73;;
4704;SDS011;2366;51.332;6.610;2023-09-30T12:31:24;9.63;;;4.23;;
4704;SDS011;2366;51.332;6.610;2023-09-30T12:33:50;4.90;;;4.50;;
4704;SDS011;2366;51.332;6.610;2023-09-30T12:36:17;7.73;;;4.13;;
4704;SDS011;2366;51.332;6.610;2023-09-30T12:38:43;6.47;;;3.37;;
4704;SDS011;2366;51.332;6.610;2023-09-30T12:41:09;7.97;;;4.00;;
4704;SDS011;2366;51.332;6.610;2023-09-30T12:43:35;7.40;;;5.40;;
4704;SDS011;2366;51.332;6.610;2023-09-30T12:46:00;5.70;;;4.23;;
4704;SDS011;2366;51.332;6.610;2023-09-30T12:48:26;6.50;;;3.60;;
4704;SDS011;2366;51.332;6.610;2023-09-30T12:50:51;5.13;;;3.90;;
4704;SDS011;2366;51.332;6.610;2023-09-30T12:53:16;7.57;;;4.10;;
4704;SDS011;2366;51.332;6.610;2023-09-30T12:55:42;4.97;;;3.83;;
4704;SDS011;2366;51.332;6.610;2023-09-30T12:58:08;10.20;;;4.13;;
4704;SDS011;2366;51.332;6.610;2023-09-30T13:00:34;5.67;;;3.87;;
4704;SDS011;2366;51.332;6.610;2023-09-30T13:03:00;10.80;;;4.93;;
4704;SDS011;2366;51.332;6.610;2023-09-30T13:05:26;5.00;;;3.57;;
4704;SDS011;2366;51.332;6.610;2023-09-30T13:07:54;10.23;;;4.87;;
4704;SDS011;2366;51.332;6.610;2023-09-30T13:10:19;5.30;;;3.97;;
4704;SDS011;2366;51.332;6.610;2023-09-30T13:12:45;5.07;;;3.67;;
4704;SDS011;2366;51.332;6.610;2023-09-30T13:15:10;9.50;;;3.90;;
4704;SDS011;2366;51.332;6.610;2023-09-30T13:17:36;7.40;;;4.20;;
4704;SDS011;2366;51.332;6.610;2023-09-30T13:20:01;4.80;;;3.40;;
4704;SDS011;2366;51.332;6.610;2023-09-30T13:22:30;6.87;;;3.73;;
4704;SDS011;2366;51.332;6.610;2023-09-30T13:24:57;7.33;;;4.60;;
4704;SDS011;2366;51.332;6.610;2023-09-30T13:27:22;6.40;;;4.20;;
4704;SDS011;2366;51.332;6.610;2023-09-30T13:29:49;6.17;;;4.40;;
4704;SDS011;2366;51.332;6.610;2023-09-30T13:32:14;5.70;;;3.97;;
4704;SDS011;2366;51.332;6.610;2023-09-30T13:34:40;7.43;;;4.37;;
4704;SDS011;2366;51.332;6.610;2023-09-30T13:37:05;9.17;;;4.87;;
4704;SDS011;2366;51.332;6.610;2023-09-30T13:39:30;8.00;;;4.80;;
4704;SDS011;2366;51.332;6.610;2023-09-30T13:41:56;6.57;;;4.03;;
4704;SDS011;2366;51.332;6.610;2023-09-30T13:44:21;11.43;;;4.43;;
4704;SDS011;2366;51.332;6.610;2023-09-30T13:46:47;7.13;;;4.57;;
4704;SDS011;2366;51.332;6.610;2023-09-30T13:49:12;8.90;;;4.00;;
4704;SDS011;2366;51.332;6.610;2023-09-30T13:51:38;5.63;;;4.87;;
4704;SDS011;2366;51.332;6.610;2023-09-30T13:54:04;5.27;;;3.50;;
4704;SDS011;2366;51.332;6.610;2023-09-30T13:56:32;8.73;;;4.40;;
4704;SDS011;2366;51.332;6.610;2023-09-30T13:58:57;13.60;;;4.50;;
4704;SDS011;2366;51.332;6.610;2023-09-30T14:01:23;7.53;;;3.60;;
4704;SDS011;2366;51.332;6.610;2023-09-30T14:03:48;7.40;;;4.30;;
4704;SDS011;2366;51.332;6.610;2023-09-30T14:06:14;4.80;;;3.77;;
4704;SDS011;2366;51.332;6.610;2023-09-30T14:08:40;6.97;;;4.40;;
4704;SDS011;2366;51.332;6.610;2023-09-30T14:11:09;5.90;;;3.80;;
4704;SDS011;2366;51.332;6.610;2023-09-30T14:13:37;8.90;;;4.70;;
4704;SDS011;2366;51.332;6.610;2023-09-30T14:16:03;6.60;;;4.40;;
4704;SDS011;2366;51.332;6.610;2023-09-30T14:18:29;7.83;;;4.40;;
4704;SDS011;2366;51.332;6.610;2023-09-30T14:20:54;5.20;;;3.97;;
4704;SDS011;2366;51.332;6.610;2023-09-30T14:23:20;4.70;;;3.80;;
4704;SDS011;2366;51.332;6.610;2023-09-30T14:25:45;6.37;;;4.53;;
4704;SDS011;2366;51.332;6.610;2023-09-30T14:28:11;4.30;;;3.70;;
4704;SDS011;2366;51.332;6.610;2023-09-30T14:30:36;7.03;;;3.97;;
4704;SDS011;2366;51.332;6.610;2023-09-30T14:33:01;6.07;;;3.67;;
4704;SDS011;2366;51.332;6.610;2023-09-30T14:35:28;4.50;;;3.50;;
4704;SDS011;2366;51.332;6.610;2023-09-30T14:37:53;7.37;;;3.97;;
4704;SDS011;2366;51.332;6.610;2023-09-30T14:40:19;10.53;;;3.80;;
4704;SDS011;2366;51.332;6.610;2023-09-30T14:42:45;8.77;;;4.13;;
4704;SDS011;2366;51.332;6.610;2023-09-30T14:45:11;13.30;;;3.80;;
4704;SDS011;2366;51.332;6.610;2023-09-30T14:47:36;5.77;;;4.00;;
4704;SDS011;2366;51.332;6.610;2023-09-30T14:50:02;4.60;;;2.90;;
4704;SDS011;2366;51.332;6.610;2023-09-30T14:52:27;15.47;;;4.10;;
4704;SDS011;2366;51.332;6.610;2023-09-30T14:54:53;6.43;;;3.33;;
4704;SDS011;2366;51.332;6.610;2023-09-30T14:57:19;6.53;;;3.70;;
4704;SDS011;2366;51.332;6.610;2023-09-30T14:59:46;5.57;;;3.00;;
4704;SDS011;2366;51.332;6.610;2023-09-30T15:02:11;4.23;;;3.70;;
4704;SDS011;2366;51.332;6.610;2023-09-30T15:04:37;10.90;;;4.00;;
4704;SDS011;2366;51.332;6.610;2023-09-30T15:07:03;5.70;;;4.67;;
4704;SDS011;2366;51.332;6.610;2023-09-30T15:09:28;8.97;;;4.13;;